createdAt,value
2019-02-25T00:00:58.886Z,19.03
2019-02-25T00:03:29.389Z,17.40
2019-02-25T00:05:59.812Z,16.70
2019-02-25T00:08:29.409Z,15.23
2019-02-25T00:10:59.036Z,13.00
2019-02-25T00:13:28.633Z,11.37
2019-02-25T00:15:58.267Z,11.83
2019-02-25T00:18:27.929Z,11.60
2019-02-25T00:20:57.554Z,11.77
2019-02-25T00:23:27.143Z,11.50
2019-02-25T00:25:56.771Z,11.47
2019-02-25T00:28:26.401Z,12.43
2019-02-25T00:30:55.988Z,11.80
2019-02-25T00:33:25.616Z,10.93
2019-02-25T00:35:55.282Z,10.20
2019-02-25T00:38:24.889Z,9.87
2019-02-25T00:40:54.584Z,10.13
2019-02-25T00:43:24.177Z,10.83
2019-02-25T00:45:53.869Z,10.83
2019-02-25T00:48:23.485Z,10.23
2019-02-25T00:50:53.162Z,10.27
2019-02-25T00:53:22.779Z,11.13
2019-02-25T00:55:52.403Z,10.63
2019-02-25T00:58:22.093Z,11.20
2019-02-25T01:00:51.824Z,10.20
2019-02-25T01:03:21.594Z,10.67
2019-02-25T01:05:51.360Z,11.07
2019-02-25T01:08:20.955Z,11.47
2019-02-25T01:10:50.616Z,11.40
2019-02-25T01:13:20.229Z,11.17
2019-02-25T01:15:49.990Z,12.13
2019-02-25T01:18:19.609Z,11.20
2019-02-25T01:20:49.204Z,11.10
2019-02-25T01:23:19.170Z,10.53
2019-02-25T01:25:48.761Z,11.17
2019-02-25T01:28:18.360Z,10.77
2019-02-25T01:30:48.059Z,10.80
2019-02-25T01:33:17.653Z,10.17
2019-02-25T01:35:47.268Z,9.67
2019-02-25T01:38:16.864Z,10.60
2019-02-25T01:40:46.488Z,10.27
2019-02-25T01:43:16.460Z,10.57
2019-02-25T01:45:46.056Z,10.00
2019-02-25T01:48:15.686Z,9.13
2019-02-25T01:50:45.280Z,9.10
2019-02-25T01:53:14.911Z,7.23
2019-02-25T01:55:44.507Z,7.77
2019-02-25T01:58:14.102Z,8.57
2019-02-25T02:00:44.130Z,4.70
2019-02-25T02:03:13.717Z,5.37
2019-02-25T02:05:43.336Z,3.80
2019-02-25T02:08:12.949Z,5.70
2019-02-25T02:10:42.538Z,5.93
2019-02-25T02:13:14.598Z,6.97
2019-02-25T02:15:44.331Z,7.23
2019-02-25T02:18:13.926Z,8.07
2019-02-25T02:20:43.521Z,7.80
2019-02-25T02:23:13.131Z,4.90
2019-02-25T02:25:42.724Z,6.10
2019-02-25T02:28:12.349Z,7.13
2019-02-25T02:30:41.944Z,7.03
2019-02-25T02:33:11.558Z,5.23
2019-02-25T02:35:41.168Z,2.23
2019-02-25T02:38:10.956Z,2.77
2019-02-25T02:40:40.566Z,4.10
2019-02-25T02:43:10.195Z,5.47
2019-02-25T02:45:56.384Z,5.70
2019-02-25T02:48:39.468Z,5.37
2019-02-25T02:51:09.064Z,5.10
2019-02-25T02:53:38.746Z,5.50
2019-02-25T02:56:08.352Z,6.13
2019-02-25T02:58:37.972Z,7.20
2019-02-25T03:01:07.567Z,7.10
2019-02-25T03:03:37.185Z,6.40
2019-02-25T03:06:06.799Z,5.40
2019-02-25T03:08:36.422Z,3.10
2019-02-25T03:11:06.370Z,2.50
2019-02-25T03:13:35.965Z,2.93
2019-02-25T03:16:05.584Z,3.70
2019-02-25T03:18:35.206Z,2.63
2019-02-25T03:21:04.794Z,2.20
2019-02-25T03:23:34.420Z,2.40
2019-02-25T03:26:04.008Z,2.00
2019-02-25T03:28:33.591Z,2.43
2019-02-25T03:31:03.217Z,2.77
2019-02-25T03:33:32.831Z,2.30
2019-02-25T03:36:02.419Z,3.03
2019-02-25T03:38:32.040Z,4.23
2019-02-25T03:41:01.728Z,4.10
2019-02-25T03:43:31.315Z,3.23
2019-02-25T03:46:00.998Z,3.43
2019-02-25T03:48:30.620Z,4.90
2019-02-25T03:51:00.212Z,5.07
2019-02-25T03:53:29.831Z,5.20
2019-02-25T03:55:59.669Z,5.37
2019-02-25T03:58:29.420Z,5.10
2019-02-25T04:00:59.322Z,4.70
2019-02-25T04:03:28.945Z,4.77
2019-02-25T04:05:58.868Z,5.73
2019-02-25T04:08:28.696Z,5.17
2019-02-25T04:10:58.284Z,4.50
2019-02-25T04:13:27.934Z,5.03
2019-02-25T04:15:57.581Z,4.17
2019-02-25T04:18:27.197Z,4.90
2019-02-25T04:20:56.859Z,4.70
2019-02-25T04:23:27.354Z,4.67
2019-02-25T04:25:56.930Z,4.47
2019-02-25T04:28:26.559Z,3.93
2019-02-25T04:30:56.146Z,3.83
2019-02-25T04:33:25.741Z,4.00
2019-02-25T04:35:55.358Z,3.50
2019-02-25T04:38:24.980Z,3.97
2019-02-25T04:40:54.629Z,3.53
2019-02-25T04:43:24.191Z,4.53
2019-02-25T04:45:53.799Z,4.10
2019-02-25T04:48:23.388Z,5.27
2019-02-25T04:50:52.996Z,4.67
2019-02-25T04:53:22.592Z,4.40
2019-02-25T04:55:52.247Z,5.43
2019-02-25T04:58:21.898Z,4.87
2019-02-25T05:00:51.488Z,4.53
2019-02-25T05:03:21.113Z,4.40
2019-02-25T05:05:50.722Z,4.50
2019-02-25T05:08:20.310Z,3.97
2019-02-25T05:10:49.916Z,4.70
2019-02-25T05:13:21.208Z,4.90
2019-02-25T05:15:51.657Z,3.80
2019-02-25T05:18:21.247Z,4.53
2019-02-25T05:20:50.940Z,4.47
2019-02-25T05:23:20.532Z,3.90
2019-02-25T05:25:50.419Z,3.90
2019-02-25T05:28:20.009Z,3.87
2019-02-25T05:30:49.706Z,4.53
2019-02-25T05:33:19.327Z,3.73
2019-02-25T05:35:48.917Z,3.90
2019-02-25T05:38:18.512Z,3.87
2019-02-25T05:40:48.135Z,3.67
2019-02-25T05:43:17.748Z,4.17
2019-02-25T05:45:47.338Z,3.00
2019-02-25T05:48:16.956Z,3.80
2019-02-25T05:50:46.545Z,4.03
2019-02-25T05:53:16.160Z,3.73
2019-02-25T05:55:45.785Z,4.60
2019-02-25T05:58:15.380Z,3.77
2019-02-25T06:00:46.579Z,3.30
2019-02-25T06:03:16.174Z,3.87
2019-02-25T06:05:45.757Z,3.37
2019-02-25T06:08:15.382Z,3.10
2019-02-25T06:10:45.002Z,3.27
2019-02-25T06:13:14.617Z,3.13
2019-02-25T06:15:45.094Z,3.30
2019-02-25T06:18:14.701Z,3.00
2019-02-25T06:20:44.547Z,2.90
2019-02-25T06:23:14.135Z,3.17
2019-02-25T06:25:43.761Z,3.77
2019-02-25T06:28:13.380Z,2.80
2019-02-25T06:30:43.712Z,3.40
2019-02-25T06:33:13.339Z,3.37
2019-02-25T06:35:42.920Z,3.23
2019-02-25T06:38:12.542Z,3.57
2019-02-25T06:40:42.164Z,4.03
2019-02-25T06:43:11.778Z,3.93
2019-02-25T06:45:41.362Z,3.93
2019-02-25T06:48:11.658Z,4.20
2019-02-25T06:50:41.820Z,4.87
2019-02-25T06:53:11.410Z,4.83
2019-02-25T06:55:41.266Z,4.10
2019-02-25T06:58:10.944Z,4.70
2019-02-25T07:00:41.112Z,4.50
2019-02-25T07:03:10.734Z,5.27
2019-02-25T07:05:53.740Z,4.80
2019-02-25T07:08:27.882Z,5.13
2019-02-25T07:11:05.741Z,5.40
2019-02-25T07:13:35.214Z,5.20
2019-02-25T07:16:22.550Z,4.60
2019-02-25T07:19:11.026Z,5.33
2019-02-25T07:21:58.351Z,7.97
2019-02-25T07:24:32.140Z,8.13
2019-02-25T07:27:03.417Z,9.60
2019-02-25T07:29:37.796Z,9.60
2019-02-25T07:32:22.098Z,6.83
2019-02-25T07:34:56.103Z,7.37
2019-02-25T07:37:27.648Z,6.83
2019-02-25T07:39:58.882Z,6.27
2019-02-25T07:42:32.856Z,5.73
2019-02-25T07:45:20.240Z,5.90
2019-02-25T07:47:51.493Z,6.07
2019-02-25T07:50:27.227Z,6.23
2019-02-25T07:53:14.952Z,6.10
2019-02-25T07:55:44.310Z,5.23
2019-02-25T07:58:18.601Z,5.63
2019-02-25T08:00:49.857Z,10.93
2019-02-25T08:03:33.016Z,10.00
2019-02-25T08:06:02.378Z,10.83
2019-02-25T08:08:31.743Z,12.73
2019-02-25T08:11:03.840Z,9.33
2019-02-25T08:13:35.552Z,10.03
2019-02-25T08:16:07.617Z,11.37
2019-02-25T08:18:38.852Z,10.97
2019-02-25T08:21:26.680Z,10.90
2019-02-25T08:23:57.912Z,9.63
2019-02-25T08:26:29.166Z,10.63
2019-02-25T08:28:58.599Z,10.70
2019-02-25T08:31:32.809Z,10.20
2019-02-25T08:34:22.424Z,9.23
2019-02-25T08:37:12.365Z,9.73
2019-02-25T08:39:46.080Z,9.77
2019-02-25T08:42:25.312Z,8.90
2019-02-25T08:45:02.406Z,8.80
2019-02-25T08:47:33.665Z,9.40
2019-02-25T08:50:03.432Z,8.73
2019-02-25T08:52:33.554Z,8.40
2019-02-25T08:55:03.321Z,7.90
2019-02-25T08:57:33.143Z,8.10
2019-02-25T09:00:03.109Z,7.43
2019-02-25T09:02:32.801Z,7.03
2019-02-25T09:05:02.396Z,7.47
2019-02-25T09:07:32.006Z,6.87
2019-02-25T09:10:01.861Z,6.73
2019-02-25T09:12:31.575Z,4.30
2019-02-25T09:15:01.212Z,4.57
2019-02-25T09:17:30.803Z,4.87
2019-02-25T09:20:00.397Z,4.20
2019-02-25T09:22:30.023Z,5.00
2019-02-25T09:25:00.420Z,5.17
2019-02-25T09:27:30.052Z,4.20
2019-02-25T09:29:59.650Z,4.33
2019-02-25T09:32:29.838Z,4.70
2019-02-25T09:34:59.719Z,4.50
2019-02-25T09:37:29.485Z,5.20
2019-02-25T09:39:59.131Z,5.43
2019-02-25T09:42:28.913Z,5.63
2019-02-25T09:44:59.092Z,4.23
2019-02-25T09:47:28.716Z,4.67
2019-02-25T09:49:58.344Z,5.13
2019-02-25T09:52:29.815Z,5.57
2019-02-25T09:54:59.457Z,5.43
2019-02-25T09:57:29.125Z,5.13
2019-02-25T09:59:58.760Z,4.93
2019-02-25T10:02:28.358Z,5.63
2019-02-25T10:04:59.734Z,5.40
2019-02-25T10:07:29.504Z,4.93
2019-02-25T10:09:59.105Z,5.17
2019-02-25T10:12:28.730Z,5.10
2019-02-25T10:14:58.330Z,5.10
2019-02-25T10:17:27.965Z,5.10
2019-02-25T10:19:58.053Z,6.80
2019-02-25T10:22:32.779Z,6.07
2019-02-25T10:25:02.211Z,5.27
2019-02-25T10:27:31.843Z,5.47
2019-02-25T10:30:01.463Z,6.23
2019-02-25T10:32:31.066Z,5.70
2019-02-25T10:35:00.787Z,5.23
2019-02-25T10:37:30.387Z,5.87
2019-02-25T10:40:00.761Z,5.60
2019-02-25T10:42:31.551Z,5.17
2019-02-25T10:45:02.706Z,5.37
2019-02-25T10:47:33.615Z,5.23
2019-02-25T10:50:05.359Z,5.70
2019-02-25T10:52:35.633Z,5.20
2019-02-25T10:55:09.889Z,5.50
2019-02-25T10:57:39.593Z,5.30
2019-02-25T11:00:21.328Z,5.60
2019-02-25T11:02:53.385Z,5.80
2019-02-25T11:05:23.692Z,4.97
2019-02-25T11:07:54.203Z,4.70
2019-02-25T11:10:28.673Z,4.10
2019-02-25T11:12:59.938Z,4.57
2019-02-25T11:15:31.056Z,4.17
2019-02-25T11:18:00.755Z,4.10
2019-02-25T11:20:31.750Z,3.60
2019-02-25T11:23:03.386Z,4.00
2019-02-25T11:25:33.238Z,3.73
2019-02-25T11:28:04.950Z,4.17
2019-02-25T11:30:34.254Z,3.87
2019-02-25T11:33:03.950Z,4.73
2019-02-25T11:35:34.367Z,4.53
2019-02-25T11:38:05.267Z,4.00
2019-02-25T11:40:36.522Z,4.57
2019-02-25T11:43:08.257Z,3.70
2019-02-25T11:45:38.334Z,4.10
2019-02-25T11:48:08.066Z,3.30
2019-02-25T11:50:37.773Z,3.30
2019-02-25T11:56:08.237Z,3.27
2019-02-25T11:58:38.432Z,4.67
2019-02-25T12:01:08.888Z,4.00
2019-02-25T12:03:38.489Z,5.33
2019-02-25T12:06:08.182Z,3.70
2019-02-25T12:08:37.811Z,4.33
2019-02-25T12:11:08.733Z,5.17
2019-02-25T12:13:38.410Z,5.80
2019-02-25T12:16:08.040Z,5.43
2019-02-25T12:18:37.666Z,7.70
2019-02-25T12:21:07.597Z,6.43
2019-02-25T12:23:37.226Z,4.97
2019-02-25T12:26:06.852Z,4.43
2019-02-25T12:28:36.686Z,4.00
2019-02-25T12:31:06.384Z,4.20
2019-02-25T12:33:35.986Z,4.50
2019-02-25T12:36:06.591Z,4.63
2019-02-25T12:38:36.954Z,5.00
2019-02-25T12:41:06.721Z,4.33
2019-02-25T12:43:36.341Z,4.60
2019-02-25T12:46:05.940Z,4.10
2019-02-25T12:48:35.572Z,6.37
2019-02-25T12:51:05.428Z,6.73
2019-02-25T12:53:35.056Z,5.97
2019-02-25T12:56:04.716Z,4.43
2019-02-25T12:58:34.307Z,4.23
2019-02-25T13:01:03.976Z,4.33
2019-02-25T13:03:33.673Z,3.60
2019-02-25T13:06:03.297Z,3.47
2019-02-25T13:08:32.891Z,3.80
2019-02-25T13:11:02.751Z,4.10
2019-02-25T13:13:32.383Z,4.70
2019-02-25T13:16:02.015Z,4.43
2019-02-25T13:18:31.614Z,3.83
2019-02-25T13:21:01.233Z,4.13
2019-02-25T13:23:30.865Z,5.30
2019-02-25T13:26:07.284Z,5.73
2019-02-25T13:28:33.557Z,6.00
2019-02-25T13:31:05.259Z,6.03
2019-02-25T13:33:34.701Z,5.53
2019-02-25T13:36:07.380Z,5.90
2019-02-25T13:38:36.978Z,6.33
2019-02-25T13:41:07.171Z,6.43
2019-02-25T13:43:36.791Z,7.30
2019-02-25T13:46:06.935Z,6.80
2019-02-25T13:48:36.534Z,7.30
2019-02-25T13:51:06.251Z,6.63
2019-02-25T13:53:35.849Z,6.90
2019-02-25T13:56:05.930Z,6.77
2019-02-25T13:58:35.585Z,6.50
2019-02-25T14:01:06.066Z,6.73
2019-02-25T14:03:35.673Z,7.37
2019-02-25T14:06:05.463Z,6.90
2019-02-25T14:08:35.065Z,6.70
2019-02-25T14:11:04.750Z,7.00
2019-02-25T14:13:34.520Z,7.03
2019-02-25T14:16:04.289Z,7.17
2019-02-25T14:18:34.539Z,7.20
2019-02-25T14:21:04.815Z,7.67
2019-02-25T14:23:38.239Z,7.53
2019-02-25T14:26:07.743Z,7.43
2019-02-25T14:28:37.371Z,7.10
2019-02-25T14:31:07.507Z,7.70
2019-02-25T14:33:37.192Z,7.27
2019-02-25T14:36:07.472Z,7.40
2019-02-25T14:38:37.414Z,7.30
2019-02-25T14:41:08.796Z,7.57
2019-02-25T14:43:45.567Z,6.90
2019-02-25T14:46:11.889Z,7.50
2019-02-25T14:48:41.378Z,7.30
2019-02-25T14:51:11.279Z,7.37
2019-02-25T14:53:42.298Z,7.37
2019-02-25T14:56:12.409Z,7.13
2019-02-25T14:58:43.047Z,7.10
2019-02-25T15:01:13.367Z,7.03
2019-02-25T15:03:42.994Z,7.10
2019-02-25T15:06:13.384Z,7.43
2019-02-25T15:08:43.014Z,7.40
2019-02-25T15:11:13.131Z,7.07
2019-02-25T15:13:43.100Z,7.40
2019-02-25T15:16:12.857Z,7.00
2019-02-25T15:18:42.456Z,6.57
2019-02-25T15:21:15.240Z,6.93
2019-02-25T15:23:44.418Z,6.70
2019-02-25T15:26:15.002Z,7.93
2019-02-25T15:28:45.216Z,7.33
2019-02-25T15:31:16.464Z,6.63
2019-02-25T15:33:46.332Z,6.40
2019-02-25T15:36:17.792Z,7.07
2019-02-25T15:38:47.297Z,7.00
2019-02-25T15:41:17.129Z,7.07
2019-02-25T15:43:46.725Z,7.13
2019-02-25T15:46:17.125Z,7.40
2019-02-25T15:48:47.914Z,6.83
2019-02-25T15:51:18.494Z,7.43
2019-02-25T15:53:48.949Z,6.63
2019-02-25T15:56:19.875Z,7.70
2019-02-25T15:58:50.112Z,6.87
2019-02-25T16:01:19.957Z,7.57
2019-02-25T16:03:49.552Z,7.37
2019-02-25T16:06:19.507Z,7.60
2019-02-25T16:08:52.094Z,7.53
2019-02-25T16:11:25.674Z,6.77
2019-02-25T16:13:55.359Z,7.17
2019-02-25T16:16:24.993Z,7.47
2019-02-25T16:18:54.901Z,6.80
2019-02-25T16:21:26.637Z,7.30
2019-02-25T16:23:59.292Z,7.00
2019-02-25T16:26:27.342Z,6.97
2019-02-25T16:28:58.863Z,6.40
2019-02-25T16:31:29.174Z,5.53
2019-02-25T16:33:59.707Z,6.40
2019-02-25T16:36:31.128Z,6.03
2019-02-25T16:39:05.237Z,6.40
2019-02-25T16:41:34.329Z,6.37
2019-02-25T16:44:04.585Z,6.17
2019-02-25T16:46:38.721Z,6.10
2019-02-25T16:49:06.362Z,6.53
2019-02-25T16:51:37.575Z,5.90
2019-02-25T16:54:10.979Z,6.13
2019-02-25T16:56:39.015Z,7.00
2019-02-25T16:59:11.161Z,6.20
2019-02-25T17:01:41.567Z,6.70
2019-02-25T17:04:12.189Z,6.07
2019-02-25T17:06:42.806Z,6.23
2019-02-25T17:09:20.368Z,6.13
2019-02-25T17:11:50.619Z,9.00
2019-02-25T17:14:21.797Z,7.93
2019-02-25T17:16:51.551Z,7.27
2019-02-25T17:19:22.526Z,6.80
2019-02-25T17:21:52.204Z,7.80
2019-02-25T17:24:24.068Z,13.40
2019-02-25T17:26:53.140Z,17.10
2019-02-25T17:29:23.128Z,14.90
2019-02-25T17:31:54.772Z,8.87
2019-02-25T17:34:25.022Z,12.73
2019-02-25T17:36:54.789Z,12.47
2019-02-25T17:39:24.385Z,17.23
2019-02-25T17:41:54.068Z,12.30
2019-02-25T17:44:27.870Z,21.67
2019-02-25T17:46:57.980Z,10.63
2019-02-25T17:49:26.902Z,12.17
2019-02-25T17:51:57.780Z,10.67
2019-02-25T17:54:29.474Z,22.57
2019-02-25T17:57:00.005Z,24.20
2019-02-25T17:59:31.510Z,21.00
2019-02-25T18:02:02.298Z,22.50
2019-02-25T18:04:33.029Z,25.30
2019-02-25T18:07:03.834Z,27.53
2019-02-25T18:09:33.583Z,23.07
2019-02-25T18:12:04.404Z,22.60
2019-02-25T18:14:34.485Z,18.30
2019-02-25T18:17:05.945Z,16.17
2019-02-25T18:19:35.663Z,14.80
2019-02-25T18:22:05.446Z,13.00
2019-02-25T18:24:35.126Z,12.43
2019-02-25T18:27:06.934Z,12.93
2019-02-25T18:29:37.066Z,12.93
2019-02-25T18:32:08.144Z,12.27
2019-02-25T18:34:38.692Z,11.90
2019-02-25T18:37:09.295Z,12.10
2019-02-25T18:39:39.905Z,10.90
2019-02-25T18:42:11.622Z,12.60
2019-02-25T18:44:42.391Z,11.87
2019-02-25T18:47:12.609Z,13.20
2019-02-25T18:49:42.277Z,12.47
2019-02-25T18:52:12.038Z,20.30
2019-02-25T18:54:43.313Z,22.13
2019-02-25T18:57:13.356Z,21.77
2019-02-25T18:59:43.111Z,24.37
2019-02-25T19:02:14.387Z,20.87
2019-02-25T19:04:45.624Z,21.93
2019-02-25T19:07:15.491Z,23.07
2019-02-25T19:09:46.883Z,17.00
2019-02-25T19:12:16.877Z,15.70
2019-02-25T19:14:46.541Z,21.23
2019-02-25T19:17:16.233Z,19.43
2019-02-25T19:19:46.987Z,17.60
2019-02-25T19:22:19.403Z,14.77
2019-02-25T19:24:50.528Z,13.73
2019-02-25T19:27:20.220Z,13.57
2019-02-25T19:29:51.194Z,13.37
2019-02-25T19:32:22.930Z,13.27
2019-02-25T19:34:54.041Z,14.53
2019-02-25T19:37:28.844Z,13.27
2019-02-25T19:39:55.951Z,12.10
2019-02-25T19:42:26.963Z,12.47
2019-02-25T19:44:58.548Z,15.43
2019-02-25T19:47:28.362Z,13.50
2019-02-25T19:49:59.581Z,13.20
2019-02-25T19:52:32.747Z,12.57
2019-02-25T19:55:01.476Z,12.57
2019-02-25T19:57:32.742Z,12.47
2019-02-25T20:00:03.228Z,11.57
2019-02-25T20:02:34.843Z,10.93
2019-02-25T20:05:09.573Z,12.13
2019-02-25T20:07:36.564Z,10.50
2019-02-25T20:10:13.681Z,10.27
2019-02-25T20:12:43.809Z,11.80
2019-02-25T20:15:25.249Z,11.10
2019-02-25T20:17:55.777Z,12.33
2019-02-25T20:20:27.172Z,10.63
2019-02-25T20:22:57.921Z,12.10
2019-02-25T20:25:28.764Z,11.30
2019-02-25T20:28:00.317Z,11.50
2019-02-25T20:30:30.544Z,11.03
2019-02-25T20:33:01.260Z,11.23
2019-02-25T20:35:31.569Z,11.40
2019-02-25T20:38:03.229Z,10.47
2019-02-25T20:40:33.113Z,11.37
2019-02-25T20:43:03.372Z,12.13
2019-02-25T20:45:37.410Z,11.20
2019-02-25T20:48:07.072Z,11.40
2019-02-25T20:50:36.696Z,11.20
2019-02-25T20:53:08.512Z,17.30
2019-02-25T20:55:37.774Z,12.83
2019-02-25T20:58:07.790Z,11.87
2019-02-25T21:00:41.367Z,11.13
2019-02-25T21:03:12.092Z,10.80
2019-02-25T21:05:40.189Z,10.50
2019-02-25T21:08:09.874Z,10.37
2019-02-25T21:10:39.468Z,12.40
2019-02-25T21:13:09.088Z,11.13
2019-02-25T21:15:40.645Z,11.43
2019-02-25T21:18:10.099Z,11.33
2019-02-25T21:20:39.961Z,11.73
2019-02-25T21:23:12.004Z,11.50
2019-02-25T21:25:40.900Z,12.17
2019-02-25T21:28:11.349Z,12.77
2019-02-25T21:30:43.538Z,11.67
2019-02-25T21:33:15.357Z,12.27
2019-02-25T21:35:43.898Z,10.57
2019-02-25T21:38:13.502Z,11.77
2019-02-25T21:40:43.951Z,9.90
2019-02-25T21:43:16.306Z,12.73
2019-02-25T21:45:48.014Z,17.93
2019-02-25T21:48:17.098Z,12.97
2019-02-25T21:50:46.716Z,9.70
2019-02-25T21:53:18.305Z,8.63
2019-02-25T21:55:47.651Z,9.47
2019-02-25T21:58:18.924Z,10.83
2019-02-25T22:00:48.605Z,18.60
2019-02-25T22:03:19.489Z,17.57
2019-02-25T22:05:51.751Z,22.20
2019-02-25T22:08:24.137Z,26.03
2019-02-25T22:10:52.207Z,17.47
2019-02-25T22:13:21.833Z,11.10
2019-02-25T22:15:51.502Z,11.70
2019-02-25T22:18:21.121Z,11.80
2019-02-25T22:20:51.429Z,11.17
2019-02-25T22:23:22.230Z,10.13
2019-02-25T22:25:52.466Z,10.33
2019-02-25T22:28:22.093Z,10.43
2019-02-25T22:30:52.304Z,9.83
2019-02-25T22:33:27.720Z,10.83
2019-02-25T22:35:54.519Z,9.70
2019-02-25T22:38:24.113Z,7.93
2019-02-25T22:40:55.499Z,18.33
2019-02-25T22:43:25.521Z,15.83
2019-02-25T22:45:58.094Z,10.37
2019-02-25T22:48:26.455Z,7.47
2019-02-25T22:50:57.776Z,7.50
2019-02-25T22:53:27.395Z,7.77
2019-02-25T22:55:57.014Z,7.47
2019-02-25T22:58:27.956Z,7.30
2019-02-25T23:01:02.296Z,7.47
2019-02-25T23:03:32.270Z,8.87
2019-02-25T23:06:02.026Z,7.60
2019-02-25T23:08:31.649Z,7.87
2019-02-25T23:11:01.272Z,9.80
2019-02-25T23:13:31.998Z,11.53
2019-02-25T23:16:01.734Z,10.60
2019-02-25T23:18:31.363Z,11.53
2019-02-25T23:21:03.015Z,10.43
2019-02-25T23:23:33.387Z,12.60
2019-02-25T23:26:03.647Z,11.20
2019-02-25T23:28:33.277Z,13.00
2019-02-25T23:31:02.879Z,13.27
2019-02-25T23:33:32.473Z,16.13
2019-02-25T23:36:02.100Z,16.60
2019-02-25T23:38:31.691Z,15.63
2019-02-25T23:41:03.635Z,11.97
2019-02-25T23:43:36.150Z,10.53
2019-02-25T23:46:04.584Z,9.77
2019-02-25T23:48:36.355Z,14.10
2019-02-25T23:51:06.709Z,16.27
2019-02-25T23:53:36.311Z,17.10
2019-02-25T23:56:06.070Z,13.37
2019-02-25T23:58:38.326Z,11.77
